createdAt,value
2017-09-11T00:00:51.779Z,85.3
2017-09-11T00:01:53.387Z,85.4
2017-09-11T00:02:54.988Z,85.5
2017-09-11T00:03:56.592Z,85.2
2017-09-11T00:04:58.207Z,85.9
2017-09-11T00:05:59.816Z,85.7
2017-09-11T00:07:01.419Z,85.6
2017-09-11T00:08:03.022Z,85.6
2017-09-11T00:09:04.630Z,85.4
2017-09-11T00:10:06.240Z,85.6
2017-09-11T00:11:07.847Z,85.6
2017-09-11T00:12:09.456Z,85.9
2017-09-11T00:13:11.060Z,85.9
2017-09-11T00:14:12.669Z,85.5
2017-09-11T00:15:14.273Z,85.4
2017-09-11T00:16:15.882Z,85.8
2017-09-11T00:17:17.480Z,86.0
2017-09-11T00:18:19.091Z,85.6
2017-09-11T00:19:20.696Z,85.8
2017-09-11T00:20:22.307Z,85.7
2017-09-11T00:21:23.913Z,85.4
2017-09-11T00:22:25.521Z,85.3
2017-09-11T00:23:27.124Z,85.3
2017-09-11T00:24:28.733Z,85.4
2017-09-11T00:25:30.337Z,85.2
2017-09-11T00:26:31.942Z,85.7
2017-09-11T00:27:33.555Z,84.9
2017-09-11T00:28:35.161Z,85.1
2017-09-11T00:29:36.769Z,85.0
2017-09-11T00:30:38.372Z,84.7
2017-09-11T00:31:39.981Z,84.8
2017-09-11T00:32:41.585Z,83.9
2017-09-11T00:33:43.201Z,83.9
2017-09-11T00:34:44.805Z,84.1
2017-09-11T00:35:46.416Z,83.7
2017-09-11T00:36:48.016Z,82.9
2017-09-11T00:37:49.626Z,83.6
2017-09-11T00:38:51.244Z,82.9
2017-09-11T00:39:52.856Z,83.7
2017-09-11T00:40:54.457Z,83.6
2017-09-11T00:41:56.070Z,83.4
2017-09-11T00:42:57.687Z,83.3
2017-09-11T00:43:59.287Z,83.3
2017-09-11T00:45:00.908Z,83.1
2017-09-11T00:46:02.518Z,83.6
2017-09-11T00:47:04.125Z,83.6
2017-09-11T00:48:05.731Z,83.4
2017-09-11T00:49:07.336Z,83.5
2017-09-11T00:50:08.950Z,83.3
2017-09-11T00:51:10.553Z,83.6
2017-09-11T00:52:12.157Z,83.4
2017-09-11T00:53:13.757Z,83.3
2017-09-11T00:54:15.371Z,83.4
2017-09-11T00:55:16.980Z,83.9
2017-09-11T00:56:18.582Z,83.8
2017-09-11T00:57:20.192Z,84.0
2017-09-11T00:58:21.798Z,84.4
2017-09-11T00:59:23.404Z,84.2
2017-09-11T01:00:25.007Z,83.9
2017-09-11T01:01:26.612Z,84.3
2017-09-11T01:02:28.225Z,84.5
2017-09-11T01:03:29.835Z,84.5
2017-09-11T01:04:31.438Z,85.3
2017-09-11T01:05:33.041Z,85.0
2017-09-11T01:06:34.650Z,85.1
2017-09-11T01:07:36.252Z,85.7
2017-09-11T01:08:37.863Z,85.4
2017-09-11T01:09:39.473Z,85.9
2017-09-11T01:10:41.077Z,86.1
2017-09-11T01:11:42.682Z,86.1
2017-09-11T01:12:44.289Z,86.3
2017-09-11T01:13:45.895Z,86.4
2017-09-11T01:14:47.500Z,86.7
2017-09-11T01:15:49.112Z,87.2
2017-09-11T01:16:50.716Z,87.3
2017-09-11T01:17:52.330Z,87.6
2017-09-11T01:18:53.932Z,88.0
2017-09-11T01:19:55.539Z,88.8
2017-09-11T01:20:57.141Z,89.5
2017-09-11T01:21:58.752Z,89.7
2017-09-11T01:23:00.355Z,90.9
2017-09-11T01:24:01.968Z,91.1
2017-09-11T01:25:03.574Z,91.4
2017-09-11T01:26:05.178Z,92.1
2017-09-11T01:27:06.783Z,92.7
2017-09-11T01:28:08.390Z,92.9
2017-09-11T01:29:09.995Z,93.7
2017-09-11T01:30:11.601Z,94.3
2017-09-11T01:31:13.213Z,94.3
2017-09-11T01:32:14.818Z,94.8
2017-09-11T01:33:16.426Z,95.4
2017-09-11T01:34:18.028Z,95.2
2017-09-11T01:35:19.637Z,95.7
2017-09-11T01:36:21.241Z,95.5
2017-09-11T01:37:22.860Z,95.9
2017-09-11T01:38:24.459Z,95.8
2017-09-11T01:39:26.065Z,96.6
2017-09-11T01:40:27.671Z,96.4
2017-09-11T01:41:29.275Z,97.1
2017-09-11T01:42:30.881Z,97.1
2017-09-11T01:43:32.488Z,97.1
2017-09-11T01:44:34.094Z,97.6
2017-09-11T01:45:35.702Z,97.9
2017-09-11T01:46:37.307Z,98.1
2017-09-11T01:47:38.916Z,98.5
2017-09-11T01:48:40.522Z,98.8
2017-09-11T01:49:42.122Z,98.5
2017-09-11T01:50:43.728Z,98.8
2017-09-11T01:51:45.339Z,98.7
2017-09-11T01:52:46.947Z,98.4
2017-09-11T01:53:48.551Z,98.5
2017-09-11T01:54:50.156Z,99.1
2017-09-11T01:55:51.765Z,99.4
2017-09-11T01:56:53.372Z,99.2
2017-09-11T01:57:54.974Z,99.2
2017-09-11T01:58:56.586Z,99.8
2017-09-11T01:59:58.191Z,100.0
2017-09-11T02:00:59.805Z,100.0
2017-09-11T02:02:01.407Z,100.0
2017-09-11T02:03:03.020Z,100.0
2017-09-11T02:04:04.621Z,100.0
2017-09-11T02:05:06.260Z,100.0
2017-09-11T02:06:07.835Z,100.0
2017-09-11T02:07:09.446Z,100.0
2017-09-11T02:08:11.053Z,99.4
2017-09-11T02:09:12.662Z,99.3
2017-09-11T02:10:14.264Z,100.0
2017-09-11T02:11:15.875Z,99.4
2017-09-11T02:12:17.476Z,98.8
2017-09-11T02:13:19.081Z,98.7
2017-09-11T02:14:20.687Z,98.8
2017-09-11T02:15:22.297Z,98.9
2017-09-11T02:16:23.899Z,98.7
2017-09-11T02:17:25.510Z,98.9
2017-09-11T02:18:27.112Z,97.9
2017-09-11T02:19:28.716Z,98.3
2017-09-11T02:20:30.321Z,98.3
2017-09-11T02:21:31.934Z,97.9
2017-09-11T02:22:33.539Z,98.0
2017-09-11T02:23:35.145Z,98.1
2017-09-11T02:24:36.751Z,98.4
2017-09-11T02:25:38.358Z,96.9
2017-09-11T02:26:39.958Z,97.9
2017-09-11T02:27:41.563Z,97.0
2017-09-11T02:28:43.175Z,96.9
2017-09-11T02:29:44.780Z,97.0
2017-09-11T02:30:46.383Z,96.9
2017-09-11T02:31:47.983Z,96.6
2017-09-11T02:32:49.594Z,96.4
2017-09-11T02:33:51.202Z,96.2
2017-09-11T02:34:52.809Z,96.2
2017-09-11T02:35:54.413Z,95.7
2017-09-11T02:36:56.027Z,95.6
2017-09-11T02:37:57.631Z,95.2
2017-09-11T02:38:59.233Z,95.4
2017-09-11T02:40:00.837Z,94.9
2017-09-11T02:41:02.449Z,94.7
2017-09-11T02:42:04.057Z,94.7
2017-09-11T02:43:05.660Z,94.9
2017-09-11T02:44:07.266Z,94.2
2017-09-11T02:45:08.874Z,94.2
2017-09-11T02:46:10.476Z,94.1
2017-09-11T02:47:12.083Z,94.3
2017-09-11T02:48:13.691Z,94.2
2017-09-11T02:49:15.299Z,93.8
2017-09-11T02:50:16.912Z,94.0
2017-09-11T02:51:18.510Z,94.1
2017-09-11T02:52:20.117Z,94.3
2017-09-11T02:53:21.718Z,94.1
2017-09-11T02:54:23.321Z,94.2
2017-09-11T02:55:24.931Z,93.6
2017-09-11T02:56:26.535Z,94.1
2017-09-11T02:57:28.147Z,94.8
2017-09-11T02:58:29.748Z,94.5
2017-09-11T02:59:31.356Z,94.8
2017-09-11T03:00:32.960Z,95.2
2017-09-11T03:01:34.569Z,95.0
2017-09-11T03:02:36.178Z,94.9
2017-09-11T03:03:37.782Z,94.3
2017-09-11T03:04:39.391Z,94.7
2017-09-11T03:05:41.000Z,94.7
2017-09-11T03:06:42.607Z,94.7
2017-09-11T03:07:44.216Z,94.8
2017-09-11T03:08:45.821Z,94.8
2017-09-11T03:09:47.426Z,94.4
2017-09-11T03:10:49.033Z,95.1
2017-09-11T03:11:50.645Z,94.5
2017-09-11T03:12:52.252Z,94.2
2017-09-11T03:13:53.859Z,94.7
2017-09-11T03:14:55.459Z,94.9
2017-09-11T03:15:57.069Z,95.6
2017-09-11T03:16:58.672Z,95.7
2017-09-11T03:18:00.282Z,97.1
2017-09-11T03:19:01.887Z,98.7
2017-09-11T03:20:03.499Z,98.7
2017-09-11T03:21:05.106Z,98.7
2017-09-11T03:22:06.705Z,99.1
2017-09-11T03:23:08.310Z,99.3
2017-09-11T03:24:09.916Z,99.7
2017-09-11T03:25:11.521Z,100.0
2017-09-11T03:26:13.353Z,100.0
2017-09-11T03:27:14.963Z,100.0
2017-09-11T03:28:16.567Z,100.0
2017-09-11T03:29:18.177Z,100.0
2017-09-11T03:30:19.781Z,100.0
2017-09-11T03:31:21.389Z,100.0
2017-09-11T03:32:22.992Z,100.0
2017-09-11T03:33:24.605Z,100.0
2017-09-11T03:34:26.209Z,100.0
2017-09-11T03:35:27.812Z,100.0
2017-09-11T03:36:29.423Z,100.0
2017-09-11T03:37:31.027Z,100.0
2017-09-11T03:38:32.640Z,100.0
2017-09-11T03:39:34.244Z,100.0
2017-09-11T03:40:35.851Z,100.0
2017-09-11T03:41:37.463Z,100.0
2017-09-11T03:42:39.072Z,100.0
2017-09-11T03:43:40.676Z,100.0
2017-09-11T03:44:42.285Z,100.0
2017-09-11T03:45:43.893Z,100.0
2017-09-11T03:46:45.499Z,100.0
2017-09-11T03:47:47.105Z,100.0
2017-09-11T03:48:48.718Z,100.0
2017-09-11T03:49:50.325Z,100.0
2017-09-11T03:50:51.953Z,100.0
2017-09-11T03:51:53.541Z,100.0
2017-09-11T03:52:55.150Z,100.0
2017-09-11T03:53:56.906Z,100.0
2017-09-11T03:54:59.077Z,100.0
2017-09-11T03:56:06.772Z,100.0
2017-09-11T03:57:08.336Z,100.0
2017-09-11T03:58:09.943Z,100.0
2017-09-11T03:59:11.549Z,100.0
2017-09-11T04:00:13.159Z,100.0
2017-09-11T04:01:14.766Z,100.0
2017-09-11T04:02:16.380Z,100.0
2017-09-11T04:03:17.987Z,100.0
2017-09-11T04:04:19.593Z,100.0
2017-09-11T04:05:21.194Z,100.0
2017-09-11T04:06:22.800Z,100.0
2017-09-11T04:07:24.409Z,100.0
2017-09-11T04:08:26.021Z,100.0
2017-09-11T04:09:27.626Z,100.0
2017-09-11T04:10:29.238Z,100.0
2017-09-11T04:11:30.847Z,100.0
2017-09-11T04:12:32.455Z,100.0
2017-09-11T04:13:34.064Z,100.0
2017-09-11T04:14:35.675Z,100.0
2017-09-11T04:15:37.282Z,100.0
2017-09-11T04:16:48.219Z,100.0
2017-09-11T04:17:53.778Z,100.0
2017-09-11T04:19:03.441Z,100.0
2017-09-11T04:20:09.677Z,100.0
2017-09-11T04:21:11.314Z,100.0
2017-09-11T04:22:12.945Z,100.0
2017-09-11T04:23:14.560Z,100.0
2017-09-11T04:24:16.163Z,100.0
2017-09-11T04:25:17.770Z,100.0
2017-09-11T04:26:19.379Z,100.0
2017-09-11T04:27:21.980Z,100.0
2017-09-11T04:28:23.541Z,100.0
2017-09-11T04:29:25.152Z,100.0
2017-09-11T04:30:26.761Z,100.0
2017-09-11T04:31:28.370Z,100.0
2017-09-11T04:32:29.981Z,100.0
2017-09-11T04:33:31.582Z,100.0
2017-09-11T04:34:33.193Z,100.0
2017-09-11T04:35:34.795Z,100.0
2017-09-11T04:36:36.433Z,100.0
2017-09-11T04:37:38.038Z,100.0
2017-09-11T04:38:39.648Z,100.0
2017-09-11T04:39:41.254Z,100.0
2017-09-11T04:40:42.863Z,100.0
2017-09-11T04:41:44.468Z,100.0
2017-09-11T04:42:46.078Z,100.0
2017-09-11T04:43:47.683Z,100.0
2017-09-11T04:44:49.298Z,100.0
2017-09-11T04:45:50.903Z,100.0
2017-09-11T04:46:52.519Z,100.0
2017-09-11T04:47:54.126Z,100.0
2017-09-11T04:48:55.730Z,100.0
2017-09-11T04:49:57.343Z,100.0
2017-09-11T04:50:58.958Z,100.0
2017-09-11T04:52:00.556Z,100.0
2017-09-11T04:53:02.169Z,100.0
2017-09-11T04:54:03.778Z,100.0
2017-09-11T04:55:05.380Z,100.0
2017-09-11T04:56:06.988Z,100.0
2017-09-11T04:57:08.597Z,100.0
2017-09-11T04:58:10.206Z,100.0
2017-09-11T04:59:11.821Z,100.0
2017-09-11T05:00:13.432Z,100.0
2017-09-11T05:01:15.039Z,100.0
2017-09-11T05:02:16.647Z,100.0
2017-09-11T05:03:18.252Z,100.0
2017-09-11T05:04:19.861Z,100.0
2017-09-11T05:05:21.472Z,100.0
2017-09-11T05:06:23.078Z,100.0
2017-09-11T05:07:24.694Z,100.0
2017-09-11T05:08:26.305Z,100.0
2017-09-11T05:09:27.910Z,100.0
2017-09-11T05:10:29.517Z,100.0
2017-09-11T05:11:31.133Z,100.0
2017-09-11T05:12:32.744Z,100.0
2017-09-11T05:13:34.350Z,100.0
2017-09-11T05:14:35.959Z,100.0
2017-09-11T05:15:37.568Z,100.0
2017-09-11T05:16:39.181Z,100.0
2017-09-11T05:17:40.785Z,100.0
2017-09-11T05:18:42.393Z,100.0
2017-09-11T05:19:44.007Z,100.0
2017-09-11T05:20:45.622Z,100.0
2017-09-11T05:21:47.234Z,100.0
2017-09-11T05:22:48.850Z,100.0
2017-09-11T05:23:50.453Z,100.0
2017-09-11T05:24:52.072Z,100.0
2017-09-11T05:25:53.680Z,100.0
2017-09-11T05:26:55.296Z,100.0
2017-09-11T05:27:56.902Z,100.0
2017-09-11T05:28:58.514Z,100.0
2017-09-11T05:30:00.128Z,100.0
2017-09-11T05:31:01.740Z,100.0
2017-09-11T05:32:03.345Z,100.0
2017-09-11T05:33:04.953Z,100.0
2017-09-11T05:34:06.561Z,100.0
2017-09-11T05:35:08.171Z,100.0
2017-09-11T05:36:09.781Z,100.0
2017-09-11T05:37:11.396Z,100.0
2017-09-11T05:38:13.000Z,100.0
2017-09-11T05:39:14.611Z,100.0
2017-09-11T05:40:16.226Z,100.0
2017-09-11T05:41:17.833Z,100.0
2017-09-11T05:42:19.450Z,100.0
2017-09-11T05:43:21.061Z,100.0
2017-09-11T05:44:22.679Z,100.0
2017-09-11T05:45:24.292Z,100.0
2017-09-11T05:46:25.897Z,100.0
2017-09-11T05:47:27.510Z,100.0
2017-09-11T05:48:29.118Z,100.0
2017-09-11T05:49:30.732Z,100.0
2017-09-11T05:50:32.344Z,100.0
2017-09-11T05:51:33.951Z,100.0
2017-09-11T05:52:35.557Z,100.0
2017-09-11T05:53:37.167Z,100.0
2017-09-11T05:54:38.781Z,100.0
2017-09-11T05:55:40.393Z,100.0
2017-09-11T05:56:42.000Z,100.0
2017-09-11T05:57:43.612Z,100.0
2017-09-11T05:58:45.233Z,100.0
2017-09-11T05:59:46.844Z,100.0
2017-09-11T06:00:48.451Z,100.0
2017-09-11T06:01:50.065Z,100.0
2017-09-11T06:02:51.674Z,100.0
2017-09-11T06:03:53.283Z,100.0
2017-09-11T06:04:54.893Z,100.0
2017-09-11T06:05:56.510Z,100.0
2017-09-11T06:06:58.117Z,100.0
2017-09-11T06:07:59.726Z,100.0
2017-09-11T06:09:01.341Z,100.0
2017-09-11T06:10:02.958Z,100.0
2017-09-11T06:11:04.574Z,100.0
2017-09-11T06:12:06.183Z,100.0
2017-09-11T06:13:07.802Z,100.0
2017-09-11T06:14:09.414Z,100.0
2017-09-11T06:15:11.022Z,100.0
2017-09-11T06:16:12.635Z,100.0
2017-09-11T06:17:14.262Z,100.0
2017-09-11T06:18:15.863Z,100.0
2017-09-11T06:19:17.481Z,100.0
2017-09-11T06:20:19.097Z,100.0
2017-09-11T06:21:20.712Z,100.0
2017-09-11T06:22:22.325Z,100.0
2017-09-11T06:23:23.934Z,100.0
2017-09-11T06:24:25.550Z,100.0
2017-09-11T06:25:27.158Z,100.0
2017-09-11T06:26:28.775Z,100.0
2017-09-11T06:27:30.392Z,100.0
2017-09-11T06:28:32.002Z,100.0
2017-09-11T06:29:33.617Z,100.0
2017-09-11T06:30:35.226Z,100.0
2017-09-11T06:31:36.842Z,100.0
2017-09-11T06:32:38.453Z,100.0
2017-09-11T06:33:40.072Z,100.0
2017-09-11T06:34:41.682Z,99.7
2017-09-11T06:35:43.299Z,99.8
2017-09-11T06:36:44.904Z,99.1
2017-09-11T06:37:46.519Z,99.3
2017-09-11T06:38:48.128Z,99.7
2017-09-11T06:39:49.745Z,100.0
2017-09-11T06:40:51.356Z,99.6
2017-09-11T06:41:52.971Z,98.9
2017-09-11T06:42:54.582Z,98.8
2017-09-11T06:43:56.195Z,99.5
2017-09-11T06:44:57.809Z,98.4
2017-09-11T06:45:59.418Z,99.5
2017-09-11T06:47:01.033Z,98.8
2017-09-11T06:48:02.642Z,99.2
2017-09-11T06:49:04.260Z,99.1
2017-09-11T06:50:05.868Z,98.5
2017-09-11T06:51:07.482Z,98.4
2017-09-11T06:52:09.090Z,98.6
2017-09-11T06:53:10.707Z,98.5
2017-09-11T06:54:12.320Z,98.4
2017-09-11T06:55:13.935Z,97.5
2017-09-11T06:56:15.544Z,98.1
2017-09-11T06:57:17.158Z,97.9
2017-09-11T06:58:18.765Z,98.4
2017-09-11T06:59:20.408Z,97.4
2017-09-11T07:00:21.991Z,96.4
2017-09-11T07:01:23.610Z,97.2
2017-09-11T07:02:25.220Z,95.9
2017-09-11T07:03:26.833Z,96.0
2017-09-11T07:04:28.447Z,95.4
2017-09-11T07:05:30.061Z,97.0
2017-09-11T07:06:31.664Z,96.2
2017-09-11T07:07:33.276Z,95.5
2017-09-11T07:08:34.893Z,95.9
2017-09-11T07:09:36.511Z,95.6
2017-09-11T07:10:38.117Z,97.2
2017-09-11T07:11:39.729Z,95.8
2017-09-11T07:12:41.345Z,97.2
2017-09-11T07:13:42.959Z,96.3
2017-09-11T07:14:44.568Z,95.4
2017-09-11T07:15:46.180Z,96.3
2017-09-11T07:16:47.795Z,94.8
2017-09-11T07:17:49.406Z,93.7
2017-09-11T07:18:51.023Z,93.9
2017-09-11T07:19:52.639Z,93.2
2017-09-11T07:20:54.248Z,92.9
2017-09-11T07:21:55.859Z,92.3
2017-09-11T07:22:57.477Z,91.6
2017-09-11T07:23:59.094Z,90.3
2017-09-11T07:25:00.705Z,91.0
2017-09-11T07:26:02.316Z,90.4
2017-09-11T07:27:03.934Z,89.2
2017-09-11T07:28:05.545Z,88.5
2017-09-11T07:29:07.158Z,89.0
2017-09-11T07:30:08.769Z,89.9
2017-09-11T07:31:10.387Z,89.5
2017-09-11T07:32:12.006Z,86.9
2017-09-11T07:33:13.615Z,85.3
2017-09-11T07:34:15.227Z,85.3
2017-09-11T07:35:16.849Z,84.2
2017-09-11T07:36:18.458Z,83.5
2017-09-11T07:37:20.078Z,80.7
2017-09-11T07:38:21.691Z,79.2
2017-09-11T07:39:23.315Z,80.3
2017-09-11T07:40:24.932Z,79.6
2017-09-11T07:41:26.542Z,78.6
2017-09-11T07:42:28.166Z,75.6
2017-09-11T07:43:29.774Z,74.1
2017-09-11T07:44:31.398Z,70.3
2017-09-11T07:45:33.013Z,67.7
2017-09-11T07:46:34.634Z,64.9
2017-09-11T07:47:36.247Z,62.1
2017-09-11T07:48:37.866Z,58.6
2017-09-11T07:49:39.480Z,57.0
2017-09-11T07:50:41.101Z,57.2
2017-09-11T07:51:42.718Z,55.3
2017-09-11T07:52:44.341Z,55.3
2017-09-11T07:53:45.955Z,57.8
2017-09-11T07:54:47.579Z,59.2
2017-09-11T07:55:49.190Z,60.1
2017-09-11T07:56:50.809Z,59.5
2017-09-11T07:57:52.433Z,59.8
2017-09-11T07:58:54.047Z,61.4
2017-09-11T07:59:55.669Z,59.9
2017-09-11T08:00:57.290Z,60.5
2017-09-11T08:01:58.903Z,63.8
2017-09-11T08:03:00.517Z,64.8
2017-09-11T08:04:02.141Z,65.4
2017-09-11T08:05:03.768Z,65.8
2017-09-11T08:06:05.378Z,60.9
2017-09-11T08:07:06.999Z,56.8
2017-09-11T08:08:08.620Z,55.8
2017-09-11T08:09:10.236Z,58.3
2017-09-11T08:10:11.861Z,56.8
2017-09-11T08:11:13.478Z,60.6
2017-09-11T08:12:15.091Z,61.8
2017-09-11T08:13:16.716Z,64.0
2017-09-11T08:14:18.333Z,63.3
2017-09-11T08:15:19.954Z,62.3
2017-09-11T08:16:21.575Z,63.2
2017-09-11T08:17:23.192Z,63.1
2017-09-11T08:18:24.809Z,65.4
2017-09-11T08:19:26.427Z,64.3
2017-09-11T08:20:28.051Z,64.8
2017-09-11T08:21:29.669Z,66.3
2017-09-11T08:22:31.285Z,66.3
2017-09-11T08:23:32.898Z,68.2
2017-09-11T08:24:34.519Z,67.4
2017-09-11T08:25:36.138Z,66.7
2017-09-11T08:26:37.754Z,63.9
2017-09-11T08:27:39.372Z,61.4
2017-09-11T08:28:40.994Z,61.7
2017-09-11T08:29:42.609Z,59.2
2017-09-11T08:30:44.230Z,56.8
2017-09-11T08:31:45.843Z,55.5
2017-09-11T08:32:47.470Z,55.9
2017-09-11T08:33:49.081Z,55.5
2017-09-11T08:34:50.706Z,54.7
2017-09-11T08:35:52.322Z,56.7
2017-09-11T08:36:53.946Z,58.3
2017-09-11T08:37:55.560Z,60.8
2017-09-11T08:38:57.180Z,62.4
2017-09-11T08:39:58.801Z,65.2
2017-09-11T08:41:00.415Z,65.7
2017-09-11T08:42:02.033Z,64.7
2017-09-11T08:43:03.657Z,62.7
2017-09-11T08:44:05.278Z,63.6
2017-09-11T08:45:06.893Z,64.1
2017-09-11T08:46:08.510Z,64.9
2017-09-11T08:47:10.123Z,66.6
2017-09-11T08:48:11.744Z,63.6
2017-09-11T08:49:13.358Z,62.0
2017-09-11T08:50:14.984Z,61.5
2017-09-11T08:51:16.606Z,58.5
2017-09-11T08:52:18.221Z,61.9
2017-09-11T08:53:19.837Z,62.2
2017-09-11T08:54:21.452Z,58.8
2017-09-11T08:55:23.077Z,55.3
2017-09-11T08:56:24.692Z,52.8
2017-09-11T08:57:26.317Z,52.6
2017-09-11T08:58:27.940Z,55.7
2017-09-11T08:59:29.552Z,57.3
2017-09-11T09:00:31.170Z,57.5
2017-09-11T09:01:32.794Z,54.2
2017-09-11T09:02:34.412Z,56.1
2017-09-11T09:03:36.069Z,53.3
2017-09-11T09:04:37.653Z,52.6
2017-09-11T09:05:39.281Z,54.4
2017-09-11T09:06:40.900Z,54.9
2017-09-11T09:07:42.523Z,51.9
2017-09-11T09:08:44.145Z,50.5
2017-09-11T09:09:45.766Z,48.3
2017-09-11T09:10:47.385Z,47.8
2017-09-11T09:11:49.011Z,47.2
2017-09-11T09:12:50.637Z,46.6
2017-09-11T09:13:52.256Z,46.0
2017-09-11T09:14:53.878Z,43.5
2017-09-11T09:15:55.498Z,43.8
2017-09-11T09:16:57.125Z,43.5
2017-09-11T09:17:58.748Z,43.5
2017-09-11T09:19:00.372Z,43.3
2017-09-11T09:20:02.038Z,43.0
2017-09-11T09:21:03.624Z,42.8
2017-09-11T09:22:05.249Z,43.2
2017-09-11T09:23:06.870Z,42.2
2017-09-11T09:24:08.500Z,43.5
2017-09-11T09:25:10.121Z,43.1
2017-09-11T09:26:11.753Z,40.6
2017-09-11T09:27:13.382Z,39.8
2017-09-11T09:28:15.000Z,38.8
2017-09-11T09:29:16.624Z,39.4
2017-09-11T09:30:18.253Z,39.1
2017-09-11T09:31:19.875Z,40.6
2017-09-11T09:32:21.508Z,38.9
2017-09-11T09:33:23.131Z,37.4
2017-09-11T09:34:24.763Z,37.4
2017-09-11T09:35:26.391Z,38.8
2017-09-11T09:36:28.014Z,40.8
2017-09-11T09:37:29.641Z,40.5
2017-09-11T09:38:31.266Z,40.6
2017-09-11T09:39:32.899Z,40.2
2017-09-11T09:40:34.524Z,42.1
2017-09-11T09:41:36.156Z,41.4
2017-09-11T09:42:37.780Z,42.8
2017-09-11T09:43:39.406Z,45.1
2017-09-11T09:44:41.037Z,44.5
2017-09-11T09:45:42.664Z,45.9
2017-09-11T09:46:44.286Z,47.7
2017-09-11T09:47:45.909Z,48.9
2017-09-11T09:48:47.538Z,49.7
2017-09-11T09:49:49.163Z,49.1
2017-09-11T09:50:50.783Z,49.8
2017-09-11T09:51:52.444Z,50.7
2017-09-11T09:52:54.066Z,50.2
2017-09-11T09:53:55.685Z,49.6
2017-09-11T09:54:57.313Z,49.9
2017-09-11T09:55:58.933Z,50.7
2017-09-11T09:57:00.558Z,49.6
2017-09-11T09:58:02.198Z,49.1
2017-09-11T09:59:03.819Z,48.9
2017-09-11T10:00:05.436Z,51.8
2017-09-11T10:01:07.058Z,51.6
2017-09-11T10:02:08.677Z,51.8
2017-09-11T10:03:10.304Z,51.5
2017-09-11T10:04:11.922Z,53.1
2017-09-11T10:05:13.538Z,53.6
2017-09-11T10:06:15.155Z,55.1
2017-09-11T10:07:16.779Z,58.9
2017-09-11T10:08:18.399Z,59.9
2017-09-11T10:09:20.015Z,62.2
2017-09-11T10:10:21.641Z,64.3
2017-09-11T10:11:23.256Z,65.8
2017-09-11T10:12:24.878Z,67.7
2017-09-11T10:13:26.492Z,69.8
2017-09-11T10:14:28.105Z,70.8
2017-09-11T10:15:29.723Z,74.6
2017-09-11T10:16:31.342Z,74.7
2017-09-11T10:17:32.963Z,75.5
2017-09-11T10:18:34.583Z,78.4
2017-09-11T10:19:36.197Z,78.4
2017-09-11T10:20:37.819Z,78.9
2017-09-11T10:21:39.433Z,75.2
2017-09-11T10:22:41.054Z,74.4
2017-09-11T10:23:42.671Z,70.7
2017-09-11T10:24:44.300Z,67.0
2017-09-11T10:25:45.913Z,66.0
2017-09-11T10:26:47.535Z,60.0
2017-09-11T10:27:49.158Z,61.9
2017-09-11T10:28:50.790Z,64.8
2017-09-11T10:29:52.409Z,61.5
2017-09-11T10:30:54.045Z,61.9
2017-09-11T10:31:55.661Z,59.2
2017-09-11T10:32:57.284Z,62.0
2017-09-11T10:33:58.907Z,64.3
2017-09-11T10:35:00.525Z,62.9
2017-09-11T10:36:02.149Z,61.8
2017-09-11T10:37:03.769Z,63.0
2017-09-11T10:38:05.391Z,61.2
2017-09-11T10:39:07.008Z,63.4
2017-09-11T10:40:08.632Z,64.7
2017-09-11T10:41:10.244Z,66.0
2017-09-11T10:42:11.867Z,65.8
2017-09-11T10:43:13.482Z,67.0
2017-09-11T10:44:15.099Z,68.5
2017-09-11T10:45:16.718Z,69.4
2017-09-11T10:46:18.343Z,71.7
2017-09-11T10:47:19.956Z,73.8
2017-09-11T10:48:21.573Z,75.0
2017-09-11T10:49:23.187Z,76.2
2017-09-11T10:50:24.804Z,78.7
2017-09-11T10:51:26.427Z,79.2
2017-09-11T10:52:28.042Z,79.0
2017-09-11T10:53:29.658Z,79.1
2017-09-11T10:54:31.278Z,80.7
2017-09-11T10:55:32.895Z,82.0
2017-09-11T10:56:34.508Z,83.6
2017-09-11T10:57:36.128Z,84.8
2017-09-11T10:58:37.744Z,84.2
2017-09-11T10:59:39.362Z,83.6
2017-09-11T11:00:40.985Z,83.7
2017-09-11T11:01:42.603Z,85.9
2017-09-11T11:02:44.213Z,83.4
2017-09-11T11:03:45.826Z,84.4
2017-09-11T11:04:47.444Z,83.7
2017-09-11T11:05:49.063Z,84.8
2017-09-11T11:06:50.677Z,85.8
2017-09-11T11:07:52.293Z,84.5
2017-09-11T11:08:53.913Z,87.2
2017-09-11T11:09:55.528Z,87.9
2017-09-11T11:10:57.140Z,87.8
2017-09-11T11:11:58.755Z,88.1
2017-09-11T11:13:00.376Z,85.9
2017-09-11T11:14:01.991Z,85.4
2017-09-11T11:15:03.615Z,83.8
2017-09-11T11:16:05.228Z,83.5
2017-09-11T11:17:06.847Z,79.8
2017-09-11T11:18:08.464Z,81.3
2017-09-11T11:19:10.086Z,72.9
2017-09-11T11:20:11.696Z,75.5
2017-09-11T11:21:13.319Z,77.3
2017-09-11T11:22:14.934Z,74.5
2017-09-11T11:23:16.555Z,76.9
2017-09-11T11:24:18.167Z,79.1
2017-09-11T11:25:19.788Z,77.2
2017-09-11T11:26:21.403Z,78.7
2017-09-11T11:27:23.028Z,76.0
2017-09-11T11:28:24.645Z,75.4
2017-09-11T11:29:26.268Z,78.3
2017-09-11T11:30:27.888Z,75.0
2017-09-11T11:31:29.503Z,74.1
2017-09-11T11:32:31.123Z,75.0
2017-09-11T11:33:32.735Z,74.7
2017-09-11T11:34:34.358Z,74.1
2017-09-11T11:35:35.974Z,75.4
2017-09-11T11:36:37.601Z,70.7
2017-09-11T11:37:39.212Z,68.5
2017-09-11T11:38:40.832Z,69.5
2017-09-11T11:39:42.445Z,68.4
2017-09-11T11:40:44.067Z,73.0
2017-09-11T11:41:45.687Z,68.8
2017-09-11T11:42:47.310Z,67.3
2017-09-11T11:43:48.924Z,70.0
2017-09-11T11:44:50.544Z,70.5
2017-09-11T11:45:52.159Z,68.9
2017-09-11T11:46:53.776Z,68.7
2017-09-11T11:47:55.398Z,69.4
2017-09-11T11:48:57.015Z,60.7
2017-09-11T11:49:58.640Z,59.4
2017-09-11T11:51:00.262Z,58.5
2017-09-11T11:52:01.878Z,59.4
2017-09-11T11:53:03.492Z,63.3
2017-09-11T11:54:05.119Z,61.4
2017-09-11T11:55:06.740Z,56.3
2017-09-11T11:56:08.355Z,53.9
2017-09-11T11:57:09.980Z,55.3
2017-09-11T11:58:11.597Z,54.2
2017-09-11T11:59:13.219Z,56.9
2017-09-11T12:00:14.834Z,55.6
2017-09-11T12:01:16.454Z,57.4
2017-09-11T12:02:18.066Z,59.2
2017-09-11T12:03:19.681Z,59.3
2017-09-11T12:04:21.304Z,60.5
2017-09-11T12:05:22.922Z,62.0
2017-09-11T12:06:24.535Z,60.6
2017-09-11T12:07:26.149Z,61.3
2017-09-11T12:08:27.769Z,60.3
2017-09-11T12:09:29.388Z,59.8
2017-09-11T12:10:31.004Z,60.4
2017-09-11T12:11:32.617Z,60.1
2017-09-11T12:12:34.241Z,60.6
2017-09-11T12:13:35.858Z,62.2
2017-09-11T12:14:37.483Z,59.6
2017-09-11T12:15:39.104Z,59.7
2017-09-11T12:16:40.708Z,57.9
2017-09-11T12:17:42.329Z,56.9
2017-09-11T12:18:43.950Z,58.9
2017-09-11T12:19:45.573Z,57.9
2017-09-11T12:20:47.184Z,60.6
2017-09-11T12:21:48.798Z,58.2
2017-09-11T12:22:50.419Z,58.3
2017-09-11T12:23:52.035Z,58.4
2017-09-11T12:24:53.648Z,59.1
2017-09-11T12:25:55.265Z,59.1
2017-09-11T12:26:56.890Z,58.6
2017-09-11T12:27:58.510Z,58.4
2017-09-11T12:29:00.125Z,58.2
2017-09-11T12:30:01.737Z,54.3
2017-09-11T12:31:03.360Z,52.8
2017-09-11T12:32:04.975Z,51.8
2017-09-11T12:33:06.596Z,52.6
2017-09-11T12:34:08.214Z,55.7
2017-09-11T12:35:09.833Z,55.0
2017-09-11T12:36:11.446Z,56.3
2017-09-11T12:37:13.067Z,55.1
2017-09-11T12:38:14.681Z,54.5
2017-09-11T12:39:16.302Z,50.1
2017-09-11T12:40:17.918Z,50.0
2017-09-11T12:41:19.541Z,47.3
2017-09-11T12:42:21.159Z,48.9
2017-09-11T12:43:22.778Z,47.1
2017-09-11T12:44:24.395Z,46.3
2017-09-11T12:45:26.017Z,48.2
2017-09-11T12:46:27.636Z,48.9
2017-09-11T12:47:29.251Z,46.3
2017-09-11T12:48:30.876Z,45.8
2017-09-11T12:49:32.485Z,47.5
2017-09-11T12:50:34.106Z,49.8
2017-09-11T12:51:35.719Z,46.7
2017-09-11T12:52:37.338Z,49.3
2017-09-11T12:53:38.954Z,48.4
2017-09-11T12:54:40.579Z,47.1
2017-09-11T12:55:42.196Z,49.7
2017-09-11T12:56:43.815Z,47.7
2017-09-11T12:57:45.427Z,46.2
2017-09-11T12:58:47.047Z,45.9
2017-09-11T12:59:48.661Z,46.0
2017-09-11T13:00:50.283Z,45.7
2017-09-11T13:01:51.896Z,45.9
2017-09-11T13:02:53.513Z,46.4
2017-09-11T13:03:55.129Z,45.1
2017-09-11T13:04:56.749Z,45.6
2017-09-11T13:05:58.365Z,47.4
2017-09-11T13:06:59.985Z,47.4
2017-09-11T13:08:01.606Z,50.3
2017-09-11T13:09:03.218Z,49.5
2017-09-11T13:10:04.840Z,52.3
2017-09-11T13:11:06.458Z,51.5
2017-09-11T13:12:08.072Z,49.8
2017-09-11T13:13:09.686Z,52.1
2017-09-11T13:14:11.297Z,52.4
2017-09-11T13:15:12.916Z,52.0
2017-09-11T13:16:14.529Z,52.7
2017-09-11T13:17:16.150Z,53.5
2017-09-11T13:18:17.759Z,53.2
2017-09-11T13:19:19.380Z,52.3
2017-09-11T13:20:20.995Z,52.7
2017-09-11T13:21:22.610Z,53.2
2017-09-11T13:22:24.228Z,52.5
2017-09-11T13:23:25.845Z,53.3
2017-09-11T13:24:27.460Z,53.0
2017-09-11T13:25:29.078Z,55.3
2017-09-11T13:26:30.688Z,55.3
2017-09-11T13:27:32.301Z,54.8
2017-09-11T13:28:33.919Z,55.7
2017-09-11T13:29:35.531Z,55.3
2017-09-11T13:30:37.151Z,53.8
2017-09-11T13:31:38.767Z,54.8
2017-09-11T13:32:40.384Z,56.2
2017-09-11T13:33:41.995Z,56.3
2017-09-11T13:34:43.615Z,55.5